createdAt,value
2023-05-02T00:00:57.794Z,75.06
2023-05-02T00:01:57.926Z,75.16
2023-05-02T00:02:57.900Z,74.96
2023-05-02T00:03:57.816Z,74.76
2023-05-02T00:04:57.819Z,74.65
2023-05-02T00:05:57.889Z,74.86
2023-05-02T00:06:57.891Z,74.76
2023-05-02T00:07:57.723Z,74.86
2023-05-02T00:08:57.723Z,74.96
2023-05-02T00:09:58.215Z,74.76
2023-05-02T00:10:57.688Z,74.35
2023-05-02T00:11:57.687Z,74.55
2023-05-02T00:12:57.683Z,75.16
2023-05-02T00:13:57.664Z,75.16
2023-05-02T00:14:57.660Z,75.06
2023-05-02T00:15:57.656Z,74.65
2023-05-02T00:16:57.727Z,74.35
2023-05-02T00:17:57.660Z,74.65
2023-05-02T00:18:57.622Z,74.82
2023-05-02T00:19:57.873Z,74.96
2023-05-02T00:20:57.589Z,75.06
2023-05-02T00:21:57.590Z,75.06
2023-05-02T00:22:57.589Z,74.55
2023-05-02T00:23:57.577Z,74.65
2023-05-02T00:24:57.594Z,74.65
2023-05-02T00:25:57.537Z,74.55
2023-05-02T00:26:57.534Z,74.65
2023-05-02T00:27:57.521Z,75.27
2023-05-02T00:28:57.504Z,75.16
2023-05-02T00:29:57.676Z,75.06
2023-05-02T00:30:57.527Z,74.96
2023-05-02T00:31:57.487Z,75.06
2023-05-02T00:32:57.531Z,74.86
2023-05-02T00:33:57.457Z,75.20
2023-05-02T00:34:57.477Z,75.40
2023-05-02T00:35:57.440Z,75.51
2023-05-02T00:36:57.421Z,75.30
2023-05-02T00:37:57.409Z,75.30
2023-05-02T00:38:57.499Z,75.40
2023-05-02T00:39:57.702Z,76.01
2023-05-02T00:40:57.383Z,75.40
2023-05-02T00:41:57.368Z,75.64
2023-05-02T00:42:57.350Z,75.44
2023-05-02T00:43:57.347Z,75.95
2023-05-02T00:44:57.357Z,76.39
2023-05-02T00:45:57.344Z,76.59
2023-05-02T00:46:57.354Z,76.70
2023-05-02T00:47:57.364Z,76.19
2023-05-02T00:48:57.293Z,76.50
2023-05-02T00:49:57.419Z,76.39
2023-05-02T00:50:57.286Z,76.39
2023-05-02T00:51:57.265Z,77.00
2023-05-02T00:52:57.256Z,77.11
2023-05-02T00:53:57.240Z,77.21
2023-05-02T00:54:58.302Z,77.72
2023-05-02T00:55:57.221Z,76.90
2023-05-02T00:56:57.215Z,77.86
2023-05-02T00:57:57.198Z,77.14
2023-05-02T00:58:57.204Z,77.65
2023-05-02T00:59:57.409Z,78.33
2023-05-02T01:00:57.170Z,78.37
2023-05-02T01:01:57.240Z,78.16
2023-05-02T01:02:57.238Z,78.47
2023-05-02T01:03:57.249Z,78.81
2023-05-02T01:04:57.155Z,78.81
2023-05-02T01:05:57.116Z,78.77
2023-05-02T01:06:57.108Z,78.98
2023-05-02T01:07:57.092Z,78.98
2023-05-02T01:08:57.083Z,78.98
2023-05-02T01:09:57.318Z,78.77
2023-05-02T01:10:57.072Z,78.91
2023-05-02T01:11:57.074Z,79.18
2023-05-02T01:12:57.043Z,79.39
2023-05-02T01:13:57.034Z,79.69
2023-05-02T01:14:57.043Z,79.59
2023-05-02T01:15:57.041Z,79.49
2023-05-02T01:16:57.007Z,79.59
2023-05-02T01:17:57.060Z,79.35
2023-05-02T01:18:56.983Z,79.04
2023-05-02T01:19:57.084Z,78.84
2023-05-02T01:20:56.959Z,78.77
2023-05-02T01:21:56.951Z,78.88
2023-05-02T01:22:56.936Z,79.39
2023-05-02T01:23:56.944Z,79.39
2023-05-02T01:24:56.932Z,79.69
2023-05-02T01:25:56.986Z,80.30
2023-05-02T01:26:56.903Z,80.61
2023-05-02T01:27:56.880Z,80.41
2023-05-02T01:28:56.869Z,80.41
2023-05-02T01:29:56.888Z,80.07
2023-05-02T01:30:56.852Z,79.49
2023-05-02T01:31:56.944Z,79.49
2023-05-02T01:32:56.850Z,80.41
2023-05-02T01:33:56.840Z,79.86
2023-05-02T01:34:56.819Z,80.41
2023-05-02T01:35:56.799Z,80.00
2023-05-02T01:36:56.799Z,79.86
2023-05-02T01:37:56.785Z,80.16
2023-05-02T01:38:56.789Z,80.16
2023-05-02T01:39:56.757Z,80.10
2023-05-02T01:40:56.764Z,80.91
2023-05-02T01:41:56.746Z,81.05
2023-05-02T01:42:56.730Z,81.16
2023-05-02T01:43:56.731Z,81.87
2023-05-02T01:44:56.733Z,82.08
2023-05-02T01:45:56.701Z,82.59
2023-05-02T01:46:56.763Z,82.63
2023-05-02T01:47:56.735Z,82.79
2023-05-02T01:48:56.677Z,83.10
2023-05-02T01:49:56.766Z,82.93
2023-05-02T01:50:56.649Z,83.04
2023-05-02T01:51:56.637Z,83.75
2023-05-02T01:52:56.626Z,83.65
2023-05-02T01:53:56.615Z,84.36
2023-05-02T01:54:56.618Z,83.54
2023-05-02T01:55:56.597Z,83.85
2023-05-02T01:56:56.589Z,83.75
2023-05-02T01:57:56.574Z,84.06
2023-05-02T01:58:56.585Z,84.16
2023-05-02T01:59:56.638Z,84.57
2023-05-02T02:00:56.596Z,84.47
2023-05-02T02:01:56.530Z,84.36
2023-05-02T02:02:56.555Z,84.77
2023-05-02T02:03:56.542Z,85.38
2023-05-02T02:04:56.513Z,85.28
2023-05-02T02:05:56.494Z,85.12
2023-05-02T02:06:56.492Z,84.57
2023-05-02T02:07:56.467Z,85.22
2023-05-02T02:08:56.456Z,85.42
2023-05-02T02:09:56.470Z,84.91
2023-05-02T02:10:56.438Z,84.77
2023-05-02T02:11:56.435Z,84.67
2023-05-02T02:12:56.420Z,85.08
2023-05-02T02:13:56.425Z,84.26
2023-05-02T02:14:56.406Z,84.22
2023-05-02T02:15:56.383Z,84.42
2023-05-02T02:16:56.432Z,84.42
2023-05-02T02:17:56.401Z,84.16
2023-05-02T02:18:56.393Z,84.47
2023-05-02T02:19:56.381Z,84.88
2023-05-02T02:20:56.344Z,84.88
2023-05-02T02:21:56.342Z,85.28
2023-05-02T02:22:56.314Z,85.18
2023-05-02T02:23:56.313Z,85.38
2023-05-02T02:24:56.303Z,84.57
2023-05-02T02:25:56.284Z,85.28
2023-05-02T02:26:56.282Z,85.49
2023-05-02T02:27:56.262Z,85.38
2023-05-02T02:28:56.248Z,86.30
2023-05-02T02:29:56.251Z,85.83
2023-05-02T02:30:56.269Z,85.73
2023-05-02T02:31:56.215Z,85.94
2023-05-02T02:32:56.267Z,86.04
2023-05-02T02:33:56.202Z,86.00
2023-05-02T02:34:56.356Z,87.02
2023-05-02T02:35:56.184Z,86.10
2023-05-02T02:36:56.170Z,86.04
2023-05-02T02:37:56.157Z,85.83
2023-05-02T02:38:56.143Z,85.18
2023-05-02T02:39:56.130Z,85.42
2023-05-02T02:40:56.140Z,85.28
2023-05-02T02:41:56.111Z,85.22
2023-05-02T02:42:56.117Z,85.49
2023-05-02T02:43:56.099Z,85.49
2023-05-02T02:44:56.107Z,85.18
2023-05-02T02:45:56.211Z,85.32
2023-05-02T02:46:56.064Z,84.98
2023-05-02T02:47:56.133Z,85.22
2023-05-02T02:48:56.049Z,85.94
2023-05-02T02:49:56.041Z,86.14
2023-05-02T02:50:56.078Z,86.44
2023-05-02T02:51:56.008Z,86.00
2023-05-02T02:52:55.996Z,86.24
2023-05-02T02:53:55.986Z,86.44
2023-05-02T02:54:55.971Z,86.14
2023-05-02T02:55:55.983Z,86.00
2023-05-02T02:56:55.962Z,85.73
2023-05-02T02:57:55.946Z,85.38
2023-05-02T02:58:55.940Z,85.18
2023-05-02T02:59:55.928Z,85.83
2023-05-02T03:00:55.945Z,85.89
2023-05-02T03:01:55.936Z,85.89
2023-05-02T03:02:55.928Z,85.69
2023-05-02T03:03:55.949Z,85.53
2023-05-02T03:04:55.878Z,85.73
2023-05-02T03:05:55.870Z,85.94
2023-05-02T03:06:56.015Z,85.83
2023-05-02T03:07:55.844Z,86.35
2023-05-02T03:08:55.831Z,86.10
2023-05-02T03:09:55.823Z,85.59
2023-05-02T03:10:55.823Z,85.49
2023-05-02T03:11:55.800Z,85.83
2023-05-02T03:12:56.133Z,86.10
2023-05-02T03:13:55.785Z,85.28
2023-05-02T03:14:55.765Z,85.49
2023-05-02T03:15:55.823Z,86.00
2023-05-02T03:16:55.757Z,85.89
2023-05-02T03:17:55.785Z,86.10
2023-05-02T03:18:55.825Z,86.00
2023-05-02T03:19:55.720Z,85.79
2023-05-02T03:20:55.726Z,86.85
2023-05-02T03:21:55.703Z,86.30
2023-05-02T03:22:55.687Z,86.35
2023-05-02T03:23:55.681Z,86.14
2023-05-02T03:24:55.670Z,86.14
2023-05-02T03:25:55.686Z,86.30
2023-05-02T03:26:55.647Z,86.14
2023-05-02T03:27:55.640Z,86.00
2023-05-02T03:28:55.628Z,87.02
2023-05-02T03:29:55.626Z,86.00
2023-05-02T03:30:55.611Z,86.00
2023-05-02T03:31:55.671Z,85.79
2023-05-02T03:32:55.613Z,85.69
2023-05-02T03:33:55.571Z,85.89
2023-05-02T03:34:55.569Z,86.10
2023-05-02T03:35:55.573Z,85.79
2023-05-02T03:36:55.584Z,86.00
2023-05-02T03:37:55.553Z,86.61
2023-05-02T03:38:55.534Z,86.30
2023-05-02T03:39:55.516Z,86.41
2023-05-02T03:40:55.542Z,86.41
2023-05-02T03:41:55.510Z,86.65
2023-05-02T03:42:55.491Z,86.71
2023-05-02T03:43:55.482Z,86.96
2023-05-02T03:44:55.474Z,87.57
2023-05-02T03:45:55.460Z,87.06
2023-05-02T03:46:56.494Z,87.12
2023-05-02T03:47:55.548Z,86.71
2023-05-02T03:48:55.429Z,86.61
2023-05-02T03:49:55.419Z,86.30
2023-05-02T03:50:55.418Z,86.98
2023-05-02T03:51:55.410Z,85.89
2023-05-02T03:52:55.391Z,85.65
2023-05-02T03:53:55.383Z,85.89
2023-05-02T03:54:55.380Z,86.06
2023-05-02T03:55:55.395Z,86.06
2023-05-02T03:56:55.368Z,85.86
2023-05-02T03:57:55.400Z,85.65
2023-05-02T03:58:55.329Z,85.75
2023-05-02T03:59:55.329Z,85.75
2023-05-02T04:00:55.319Z,85.49
2023-05-02T04:01:56.309Z,86.16
2023-05-02T04:02:55.400Z,86.91
2023-05-02T04:03:55.316Z,87.02
2023-05-02T04:04:55.268Z,87.43
2023-05-02T04:05:55.269Z,87.47
2023-05-02T04:06:55.310Z,87.53
2023-05-02T04:07:55.246Z,87.63
2023-05-02T04:08:55.227Z,87.23
2023-05-02T04:09:55.219Z,87.47
2023-05-02T04:10:55.221Z,88.04
2023-05-02T04:11:55.201Z,87.98
2023-05-02T04:12:55.189Z,88.70
2023-05-02T04:13:55.178Z,87.98
2023-05-02T04:14:55.183Z,87.98
2023-05-02T04:15:55.173Z,88.90
2023-05-02T04:16:55.263Z,88.70
2023-05-02T04:17:55.218Z,88.64
2023-05-02T04:18:55.136Z,88.84
2023-05-02T04:19:55.123Z,89.15
2023-05-02T04:20:55.129Z,89.56
2023-05-02T04:21:55.100Z,89.97
2023-05-02T04:22:55.096Z,90.06
2023-05-02T04:23:55.084Z,89.76
2023-05-02T04:24:55.077Z,90.06
2023-05-02T04:25:55.066Z,89.97
2023-05-02T04:26:55.050Z,89.97
2023-05-02T04:27:55.053Z,90.68
2023-05-02T04:28:55.039Z,89.92
2023-05-02T04:29:55.023Z,89.86
2023-05-02T04:30:55.061Z,89.82
2023-05-02T04:31:55.021Z,90.02
2023-05-02T04:32:55.041Z,89.92
2023-05-02T04:33:54.985Z,89.97
2023-05-02T04:34:54.970Z,90.37
2023-05-02T04:35:54.953Z,90.47
2023-05-02T04:36:54.964Z,90.27
2023-05-02T04:37:54.943Z,89.45
2023-05-02T04:38:54.944Z,90.27
2023-05-02T04:39:54.914Z,90.27
2023-05-02T04:40:54.898Z,90.06
2023-05-02T04:41:54.905Z,89.56
2023-05-02T04:42:54.895Z,89.65
2023-05-02T04:43:54.873Z,89.65
2023-05-02T04:44:54.862Z,89.56
2023-05-02T04:45:54.888Z,90.47
2023-05-02T04:46:54.904Z,90.47
2023-05-02T04:47:54.863Z,89.65
2023-05-02T04:48:54.836Z,89.65
2023-05-02T04:49:54.808Z,89.86
2023-05-02T04:50:54.795Z,90.06
2023-05-02T04:51:54.800Z,89.86
2023-05-02T04:52:54.798Z,89.76
2023-05-02T04:53:54.761Z,89.97
2023-05-02T04:54:54.761Z,90.17
2023-05-02T04:55:54.744Z,90.47
2023-05-02T04:56:54.740Z,89.65
2023-05-02T04:57:54.721Z,89.97
2023-05-02T04:58:54.710Z,90.17
2023-05-02T04:59:54.696Z,90.06
2023-05-02T05:00:54.694Z,89.35
2023-05-02T05:01:54.700Z,89.04
2023-05-02T05:02:54.791Z,89.25
2023-05-02T05:03:54.778Z,89.04
2023-05-02T05:04:54.693Z,89.25
2023-05-02T05:05:54.649Z,89.25
2023-05-02T05:06:54.696Z,88.94
2023-05-02T05:07:54.619Z,88.94
2023-05-02T05:08:54.615Z,88.53
2023-05-02T05:09:54.604Z,88.78
2023-05-02T05:10:54.585Z,89.18
2023-05-02T05:11:54.587Z,90.11
2023-05-02T05:12:54.567Z,90.21
2023-05-02T05:13:54.551Z,89.04
2023-05-02T05:14:54.545Z,88.74
2023-05-02T05:15:55.589Z,88.43
2023-05-02T05:16:54.550Z,88.64
2023-05-02T05:17:54.568Z,88.84
2023-05-02T05:18:54.508Z,88.33
2023-05-02T05:19:54.506Z,88.84
2023-05-02T05:20:54.483Z,88.74
2023-05-02T05:21:54.488Z,88.84
2023-05-02T05:22:54.461Z,88.74
2023-05-02T05:23:54.448Z,89.35
2023-05-02T05:24:54.455Z,88.84
2023-05-02T05:25:54.430Z,88.94
2023-05-02T05:26:54.441Z,88.49
2023-05-02T05:27:54.429Z,88.94
2023-05-02T05:28:54.400Z,88.53
2023-05-02T05:29:54.409Z,88.94
2023-05-02T05:30:54.387Z,88.43
2023-05-02T05:31:54.409Z,88.74
2023-05-02T05:32:54.442Z,88.43
2023-05-02T05:33:54.454Z,88.94
2023-05-02T05:34:54.338Z,89.25
2023-05-02T05:35:54.334Z,88.88
2023-05-02T05:36:54.333Z,89.29
2023-05-02T05:37:54.307Z,88.94
2023-05-02T05:38:54.300Z,89.09
2023-05-02T05:39:54.284Z,89.18
2023-05-02T05:40:54.278Z,89.29
2023-05-02T05:41:54.274Z,90.11
2023-05-02T05:42:54.250Z,89.90
2023-05-02T05:43:54.244Z,89.90
2023-05-02T05:44:54.244Z,90.00
2023-05-02T05:45:54.224Z,89.70
2023-05-02T05:46:54.310Z,90.00
2023-05-02T05:47:54.257Z,90.00
2023-05-02T05:48:54.193Z,90.31
2023-05-02T05:49:54.181Z,90.00
2023-05-02T05:50:54.175Z,90.11
2023-05-02T05:51:54.179Z,90.06
2023-05-02T05:52:54.155Z,89.04
2023-05-02T05:53:54.142Z,88.02
2023-05-02T05:54:54.127Z,88.43
2023-05-02T05:55:54.146Z,87.92
2023-05-02T05:56:54.123Z,88.33
2023-05-02T05:57:54.099Z,88.08
2023-05-02T05:58:54.094Z,88.08
2023-05-02T05:59:54.087Z,88.59
2023-05-02T06:00:54.079Z,88.70
2023-05-02T06:01:54.074Z,88.70
2023-05-02T06:02:54.186Z,88.70
2023-05-02T06:03:54.094Z,88.39
2023-05-02T06:04:54.099Z,88.12
2023-05-02T06:05:54.020Z,88.08
2023-05-02T06:06:54.035Z,88.29
2023-05-02T06:07:53.993Z,88.59
2023-05-02T06:08:53.993Z,88.79
2023-05-02T06:09:53.984Z,87.77
2023-05-02T06:10:53.970Z,88.39
2023-05-02T06:11:53.965Z,88.08
2023-05-02T06:12:53.959Z,88.59
2023-05-02T06:13:53.943Z,87.88
2023-05-02T06:14:53.930Z,88.49
2023-05-02T06:15:53.961Z,87.67
2023-05-02T06:16:54.074Z,88.59
2023-05-02T06:17:53.911Z,88.18
2023-05-02T06:18:53.883Z,88.08
2023-05-02T06:19:53.876Z,88.08
2023-05-02T06:20:53.856Z,88.08
2023-05-02T06:21:53.868Z,88.18
2023-05-02T06:22:53.845Z,88.08
2023-05-02T06:23:53.840Z,86.65
2023-05-02T06:24:53.834Z,86.65
2023-05-02T06:25:53.818Z,86.91
2023-05-02T06:26:53.802Z,86.04
2023-05-02T06:27:53.809Z,86.41
2023-05-02T06:28:53.783Z,86.35
2023-05-02T06:29:53.766Z,86.41
2023-05-02T06:30:53.760Z,86.24
2023-05-02T06:31:53.854Z,86.35
2023-05-02T06:32:53.770Z,87.00
2023-05-02T06:33:53.765Z,87.10
2023-05-02T06:34:53.720Z,87.82
2023-05-02T06:35:53.707Z,87.51
2023-05-02T06:36:53.709Z,88.02
2023-05-02T06:37:53.702Z,88.64
2023-05-02T06:38:53.681Z,88.33
2023-05-02T06:39:53.663Z,88.43
2023-05-02T06:40:53.662Z,88.53
2023-05-02T06:41:53.649Z,88.02
2023-05-02T06:42:53.645Z,88.02
2023-05-02T06:43:53.623Z,88.94
2023-05-02T06:44:53.625Z,89.29
2023-05-02T06:45:53.601Z,90.06
2023-05-02T06:46:53.657Z,88.78
2023-05-02T06:47:53.628Z,88.88
2023-05-02T06:48:53.602Z,88.84
2023-05-02T06:49:53.564Z,88.94
2023-05-02T06:50:53.555Z,88.70
2023-05-02T06:51:53.540Z,89.11
2023-05-02T06:52:53.553Z,88.59
2023-05-02T06:53:53.525Z,87.53
2023-05-02T06:54:53.512Z,87.53
2023-05-02T06:55:53.511Z,86.98
2023-05-02T06:56:53.492Z,86.06
2023-05-02T06:57:53.497Z,86.26
2023-05-02T06:58:53.472Z,86.88
2023-05-02T06:59:53.461Z,86.57
2023-05-02T07:00:53.492Z,86.57
2023-05-02T07:01:53.442Z,86.26
2023-05-02T07:02:53.472Z,85.86
2023-05-02T07:03:53.427Z,86.67
2023-05-02T07:04:53.412Z,86.67
2023-05-02T07:05:53.412Z,87.32
2023-05-02T07:06:53.405Z,88.29
2023-05-02T07:07:53.486Z,88.35
2023-05-02T07:08:53.365Z,87.73
2023-05-02T07:09:53.350Z,87.32
2023-05-02T07:10:53.336Z,87.53
2023-05-02T07:11:53.334Z,87.43
2023-05-02T07:12:53.355Z,88.35
2023-05-02T07:13:53.315Z,88.29
2023-05-02T07:14:53.316Z,88.08
2023-05-02T07:15:53.293Z,88.35
2023-05-02T07:16:53.324Z,87.63
2023-05-02T07:17:53.317Z,86.00
2023-05-02T07:18:53.256Z,86.71
2023-05-02T07:19:53.250Z,86.26
2023-05-02T07:20:53.289Z,86.26
2023-05-02T07:21:53.220Z,86.16
2023-05-02T07:22:53.226Z,86.77
2023-05-02T07:23:53.212Z,86.06
2023-05-02T07:24:53.197Z,84.94
2023-05-02T07:25:53.189Z,85.04
2023-05-02T07:26:53.208Z,85.04
2023-05-02T07:27:53.181Z,84.63
2023-05-02T07:28:53.156Z,84.94
2023-05-02T07:29:53.149Z,84.33
2023-05-02T07:30:53.219Z,85.24
2023-05-02T07:31:53.160Z,85.10
2023-05-02T07:32:53.164Z,85.30
2023-05-02T07:33:53.109Z,85.21
2023-05-02T07:34:53.102Z,84.90
2023-05-02T07:35:53.093Z,84.59
2023-05-02T07:36:53.067Z,84.14
2023-05-02T07:37:53.075Z,84.25
2023-05-02T07:38:53.063Z,84.11
2023-05-02T07:39:53.045Z,84.25
2023-05-02T07:40:53.035Z,83.63
2023-05-02T07:41:53.030Z,83.73
2023-05-02T07:42:53.031Z,84.25
2023-05-02T07:43:53.000Z,84.45
2023-05-02T07:44:53.012Z,84.86
2023-05-02T07:45:53.045Z,85.37
2023-05-02T07:46:52.989Z,84.34
2023-05-02T07:47:52.996Z,84.25
2023-05-02T07:48:52.952Z,84.96
2023-05-02T07:49:52.945Z,85.06
2023-05-02T07:50:52.929Z,84.66
2023-05-02T07:51:52.925Z,85.68
2023-05-02T07:52:52.926Z,85.22
2023-05-02T07:53:52.900Z,85.74
2023-05-02T07:54:52.904Z,85.33
2023-05-02T07:55:52.896Z,84.66
2023-05-02T07:56:52.869Z,85.47
2023-05-02T07:57:52.864Z,84.51
2023-05-02T07:58:52.855Z,84.66
2023-05-02T07:59:52.841Z,84.61
2023-05-02T08:00:52.832Z,84.45
2023-05-02T08:01:52.830Z,85.02
2023-05-02T08:02:52.954Z,83.94
2023-05-02T08:03:53.015Z,83.15
2023-05-02T08:04:52.825Z,83.35
2023-05-02T08:05:52.778Z,83.01
2023-05-02T08:06:52.931Z,82.40
2023-05-02T08:07:52.770Z,82.03
2023-05-02T08:08:52.751Z,82.33
2023-05-02T08:09:52.730Z,82.03
2023-05-02T08:10:52.723Z,81.93
2023-05-02T08:11:52.713Z,82.03
2023-05-02T08:12:52.716Z,82.43
2023-05-02T08:13:52.694Z,82.43
2023-05-02T08:14:52.693Z,81.62
2023-05-02T08:15:52.695Z,81.62
2023-05-02T08:16:52.720Z,81.93
2023-05-02T08:17:52.716Z,81.72
2023-05-02T08:18:52.648Z,81.21
2023-05-02T08:19:52.635Z,81.52
2023-05-02T08:20:52.637Z,81.86
2023-05-02T08:21:52.619Z,81.35
2023-05-02T08:22:52.617Z,80.80
2023-05-02T08:23:52.596Z,80.84
2023-05-02T08:24:52.587Z,80.74
2023-05-02T08:25:52.591Z,80.74
2023-05-02T08:26:52.560Z,80.64
2023-05-02T08:27:52.558Z,83.33
2023-05-02T08:28:52.546Z,83.12
2023-05-02T08:29:52.552Z,82.10
2023-05-02T08:30:52.521Z,82.10
2023-05-02T08:31:52.588Z,80.84
2023-05-02T08:32:52.557Z,81.96
2023-05-02T08:33:52.498Z,81.56
2023-05-02T08:34:52.489Z,81.93
2023-05-02T08:35:52.482Z,80.60
2023-05-02T08:36:52.469Z,80.36
2023-05-02T08:37:52.464Z,80.29
2023-05-02T08:38:52.451Z,80.50
2023-05-02T08:39:52.435Z,80.56
2023-05-02T08:40:52.461Z,80.46
2023-05-02T08:41:52.417Z,80.26
2023-05-02T08:42:52.448Z,78.73
2023-05-02T08:43:52.393Z,77.81
2023-05-02T08:44:52.399Z,78.73
2023-05-02T08:45:52.379Z,78.83
2023-05-02T08:46:52.383Z,79.07
2023-05-02T08:47:52.468Z,80.29
2023-05-02T08:48:52.351Z,80.05
2023-05-02T08:49:52.328Z,79.34
2023-05-02T08:50:52.324Z,79.64
2023-05-02T08:51:52.317Z,80.26
2023-05-02T08:52:52.319Z,80.26
2023-05-02T08:53:52.320Z,80.77
2023-05-02T08:54:52.296Z,80.50
2023-05-02T08:55:52.273Z,80.09
2023-05-02T08:56:52.258Z,80.09
2023-05-02T08:57:52.256Z,80.74
2023-05-02T08:58:52.256Z,80.40
2023-05-02T08:59:52.231Z,80.50
2023-05-02T09:00:52.308Z,80.33
2023-05-02T09:01:52.215Z,80.29
2023-05-02T09:02:52.253Z,79.89
2023-05-02T09:03:52.249Z,80.70
2023-05-02T09:04:52.178Z,80.19
2023-05-02T09:05:52.179Z,80.60
2023-05-02T09:06:52.315Z,80.70
2023-05-02T09:07:52.176Z,80.40
2023-05-02T09:08:52.139Z,80.54
2023-05-02T09:09:52.127Z,80.88
2023-05-02T09:10:52.125Z,81.18
2023-05-02T09:11:52.107Z,80.57
2023-05-02T09:12:52.203Z,83.53
2023-05-02T09:13:52.105Z,85.06
2023-05-02T09:14:52.077Z,84.20
2023-05-02T09:15:52.067Z,81.59
2023-05-02T09:16:52.130Z,81.56
2023-05-02T09:17:52.147Z,80.57
2023-05-02T09:18:52.031Z,83.12
2023-05-02T09:19:52.037Z,83.09
2023-05-02T09:20:52.031Z,82.27
2023-05-02T09:21:52.005Z,80.23
2023-05-02T09:22:52.031Z,81.45
2023-05-02T09:23:51.995Z,81.86
2023-05-02T09:24:51.982Z,83.49
2023-05-02T09:25:51.972Z,81.76
2023-05-02T09:26:51.955Z,81.41
2023-05-02T09:27:51.997Z,80.40
2023-05-02T09:28:51.940Z,80.43
2023-05-02T09:29:51.924Z,81.76
2023-05-02T09:30:51.929Z,82.27
2023-05-02T09:31:56.127Z,80.60
2023-05-02T09:32:52.942Z,81.09
2023-05-02T09:33:51.880Z,82.41
2023-05-02T09:34:51.883Z,81.49
2023-05-02T09:35:51.867Z,82.21
2023-05-02T09:36:51.924Z,81.59
2023-05-02T09:37:51.884Z,81.23
2023-05-02T09:38:51.839Z,84.28
2023-05-02T09:39:51.826Z,84.08
2023-05-02T09:40:51.823Z,82.82
2023-05-02T09:41:51.803Z,81.76
2023-05-02T09:42:51.813Z,81.72
2023-05-02T09:43:51.792Z,78.93
2023-05-02T09:44:51.770Z,80.87
2023-05-02T09:46:23.686Z,80.63
2023-05-02T09:46:51.766Z,78.39
2023-05-02T09:47:51.817Z,82.09
2023-05-02T09:48:51.780Z,82.80
2023-05-02T09:49:51.769Z,84.12
2023-05-02T09:50:51.722Z,83.56
2023-05-02T09:51:51.702Z,82.33
2023-05-02T09:52:51.730Z,83.15
2023-05-02T09:53:51.709Z,83.18
2023-05-02T09:54:51.674Z,82.27
2023-05-02T09:55:51.669Z,83.59
2023-05-02T09:56:51.662Z,84.00
2023-05-02T09:57:51.655Z,83.43
2023-05-02T09:58:51.642Z,86.82
2023-05-02T09:59:51.623Z,84.67
2023-05-02T10:00:51.656Z,80.56
2023-05-02T10:01:51.677Z,79.50
2023-05-02T10:02:51.654Z,79.00
2023-05-02T10:03:51.640Z,77.26
2023-05-02T10:04:51.578Z,78.83
2023-05-02T10:05:51.572Z,80.46
2023-05-02T10:06:51.681Z,79.85
2023-05-02T10:07:51.567Z,78.08
2023-05-02T10:08:51.544Z,77.71
2023-05-02T10:09:51.529Z,78.53
2023-05-02T10:10:51.514Z,80.16
2023-05-02T10:11:51.540Z,80.36
2023-05-02T10:12:51.509Z,81.01
2023-05-02T10:13:51.491Z,81.52
2023-05-02T10:14:51.472Z,80.66
2023-05-02T10:15:51.514Z,79.24
2023-05-02T10:16:51.454Z,77.67
2023-05-02T10:17:51.522Z,77.87
2023-05-02T10:18:51.434Z,77.51
2023-05-02T10:19:51.447Z,77.71
2023-05-02T10:20:51.429Z,76.45
2023-05-02T10:21:51.414Z,77.57
2023-05-02T10:22:51.419Z,78.12
2023-05-02T10:23:51.379Z,76.79
2023-05-02T10:24:51.380Z,76.08
2023-05-02T10:25:51.376Z,76.79
2023-05-02T10:26:51.362Z,76.83
2023-05-02T10:27:51.365Z,76.39
2023-05-02T10:28:51.345Z,76.90
2023-05-02T10:29:51.340Z,75.92
2023-05-02T10:30:51.317Z,74.52
2023-05-02T10:31:51.382Z,78.19
2023-05-02T10:32:51.356Z,75.40
2023-05-02T10:33:51.302Z,76.46
2023-05-02T10:34:51.275Z,79.58
2023-05-02T10:35:51.293Z,78.02
2023-05-02T10:36:51.298Z,75.33
2023-05-02T10:37:51.265Z,79.20
2023-05-02T10:38:51.260Z,77.98
2023-05-02T10:39:51.232Z,77.50
2023-05-02T10:40:51.902Z,75.60
2023-05-02T10:41:51.207Z,78.83
2023-05-02T10:42:51.200Z,74.55
2023-05-02T10:43:51.193Z,80.73
2023-05-02T10:44:51.186Z,80.38
2023-05-02T10:45:51.180Z,77.94
2023-05-02T10:46:51.185Z,78.69
2023-05-02T10:47:51.184Z,79.64
2023-05-02T10:48:51.129Z,79.85
2023-05-02T10:49:51.113Z,80.11
2023-05-02T10:50:51.128Z,79.10
2023-05-02T10:51:51.126Z,78.42
2023-05-02T10:52:51.095Z,80.09
2023-05-02T10:53:51.084Z,80.29
2023-05-02T10:54:51.069Z,78.87
2023-05-02T10:55:51.055Z,80.26
2023-05-02T10:56:51.061Z,80.87
2023-05-02T10:57:51.054Z,79.71
2023-05-02T10:58:51.055Z,79.54
2023-05-02T10:59:51.034Z,78.93
2023-05-02T11:00:51.089Z,80.56
2023-05-02T11:01:51.048Z,79.99
2023-05-02T11:02:51.132Z,80.70
2023-05-02T11:03:50.987Z,79.24
2023-05-02T11:04:50.983Z,77.91
2023-05-02T11:05:50.958Z,78.39
2023-05-02T11:06:50.979Z,78.39
2023-05-02T11:07:50.947Z,81.18
2023-05-02T11:08:50.944Z,82.61
2023-05-02T11:09:50.912Z,82.92
2023-05-02T11:10:50.907Z,82.92
2023-05-02T11:11:50.919Z,80.98
2023-05-02T11:12:50.936Z,81.53
2023-05-02T11:13:50.917Z,83.47
2023-05-02T11:14:50.921Z,84.12
2023-05-02T11:15:50.862Z,83.65
2023-05-02T11:16:50.955Z,84.44
2023-05-02T11:17:50.880Z,86.49
2023-05-02T11:18:50.832Z,87.14
2023-05-02T11:19:50.825Z,87.55
2023-05-02T11:20:50.812Z,86.22
2023-05-02T11:21:50.804Z,86.83
2023-05-02T11:22:50.792Z,87.38
2023-05-02T11:23:50.782Z,88.00
2023-05-02T11:24:50.765Z,86.65
2023-05-02T11:25:50.747Z,88.39
2023-05-02T11:26:50.744Z,89.45
2023-05-02T11:27:50.739Z,90.58
2023-05-02T11:28:50.720Z,90.69
2023-05-02T11:29:50.703Z,90.69
2023-05-02T11:30:50.699Z,90.48
2023-05-02T11:31:50.763Z,91.20
2023-05-02T11:32:50.737Z,91.09
2023-05-02T11:33:50.670Z,91.09
2023-05-02T11:34:50.647Z,90.52
2023-05-02T11:35:50.644Z,90.11
2023-05-02T11:36:50.650Z,90.69
2023-05-02T11:37:50.629Z,90.69
2023-05-02T11:38:50.607Z,91.14
2023-05-02T11:39:50.593Z,91.09
2023-05-02T11:40:50.584Z,90.79
2023-05-02T11:41:50.570Z,90.34
2023-05-02T11:42:50.590Z,89.68
2023-05-02T11:43:50.560Z,89.78
2023-05-02T11:44:50.540Z,88.39
2023-05-02T11:45:50.691Z,88.43
2023-05-02T11:46:50.563Z,90.17
2023-05-02T11:47:50.577Z,89.45
2023-05-02T11:48:50.497Z,89.87
2023-05-02T11:49:50.483Z,89.83
2023-05-02T11:50:50.916Z,88.29
2023-05-02T11:51:50.477Z,86.85
2023-05-02T11:52:50.490Z,87.88
2023-05-02T11:53:50.457Z,88.08
2023-05-02T11:54:50.447Z,87.77
2023-05-02T11:55:50.440Z,88.56
2023-05-02T11:56:50.460Z,88.35
2023-05-02T11:57:50.440Z,88.35
2023-05-02T11:58:50.400Z,87.94
2023-05-02T11:59:50.393Z,87.22
2023-05-02T12:00:50.392Z,86.96
2023-05-02T12:01:50.381Z,87.67
2023-05-02T12:02:50.424Z,88.90
2023-05-02T12:03:50.526Z,87.30
2023-05-02T12:04:50.350Z,88.17
2023-05-02T12:05:50.371Z,87.51
2023-05-02T12:06:50.356Z,89.11
2023-05-02T12:07:50.331Z,89.21
2023-05-02T12:08:50.301Z,88.18
2023-05-02T12:09:50.294Z,85.97
2023-05-02T12:10:50.284Z,87.82
2023-05-02T12:11:50.277Z,88.70
2023-05-02T12:12:50.279Z,85.31
2023-05-02T12:13:50.766Z,85.07
2023-05-02T12:14:50.243Z,84.50
2023-05-02T12:15:50.319Z,87.24
2023-05-02T12:16:50.274Z,87.24
2023-05-02T12:17:50.270Z,87.67
2023-05-02T12:18:50.222Z,86.91
2023-05-02T12:19:50.204Z,87.94
2023-05-02T12:20:50.183Z,84.60
2023-05-02T12:21:50.202Z,86.14
2023-05-02T12:22:50.171Z,85.38
2023-05-02T12:23:50.151Z,85.55
2023-05-02T12:24:50.164Z,84.79
2023-05-02T12:25:50.136Z,82.60
2023-05-02T12:26:51.117Z,80.76
2023-05-02T12:27:50.116Z,80.93
2023-05-02T12:28:50.154Z,83.59
2023-05-02T12:29:50.089Z,82.36
2023-05-02T12:30:50.094Z,81.23
2023-05-02T12:31:50.126Z,78.74
2023-05-02T12:32:50.132Z,78.70
2023-05-02T12:33:50.052Z,76.90
2023-05-02T12:34:50.048Z,75.16
2023-05-02T12:35:50.068Z,77.51
2023-05-02T12:36:50.026Z,75.37
2023-05-02T12:37:50.025Z,75.33
2023-05-02T12:38:49.998Z,73.26
2023-05-02T12:39:50.040Z,72.86
2023-05-02T12:40:49.971Z,71.47
2023-05-02T12:41:49.962Z,73.57
2023-05-02T12:42:50.008Z,75.95
2023-05-02T12:43:49.952Z,73.94
2023-05-02T12:44:49.954Z,77.04
2023-05-02T12:45:49.962Z,77.72
2023-05-02T12:46:49.946Z,75.81
2023-05-02T12:47:49.980Z,72.99
2023-05-02T12:48:49.891Z,74.08
2023-05-02T12:49:49.884Z,74.65
2023-05-02T12:50:49.874Z,73.10
2023-05-02T12:51:49.862Z,71.26
2023-05-02T12:52:49.873Z,72.82